sensor_id;sensor_type;location;lat;lon;timestamp;temperature;humidity
41694;DHT22;27377;50.666;9.150;2023-12-14T05:08:47;5.70;99.90
41694;DHT22;27377;50.666;9.150;2023-12-14T05:11:13;5.80;99.90
41694;DHT22;27377;50.666;9.150;2023-12-14T05:13:39;5.80;99.90
41694;DHT22;27377;50.666;9.150;2023-12-14T05:16:06;5.80;99.90
41694;DHT22;27377;50.666;9.150;2023-12-14T05:18:31;5.80;99.90
41694;DHT22;27377;50.666;9.150;2023-12-14T05:20:57;5.80;99.90
41694;DHT22;27377;50.666;9.150;2023-12-14T05:23:23;5.90;99.90
41694;DHT22;27377;50.666;9.150;2023-12-14T05:25:49;5.90;99.90
41694;DHT22;27377;50.666;9.150;2023-12-14T05:28:15;5.90;99.90
41694;DHT22;27377;50.666;9.150;2023-12-14T05:30:40;5.90;99.90
41694;DHT22;27377;50.666;9.150;2023-12-14T05:33:07;5.90;99.90
41694;DHT22;27377;50.666;9.150;2023-12-14T05:35:32;6.00;99.90
41694;DHT22;27377;50.666;9.150;2023-12-14T05:37:58;6.00;99.90
41694;DHT22;27377;50.666;9.150;2023-12-14T05:40:23;6.00;99.90
41694;DHT22;27377;50.666;9.150;2023-12-14T05:42:49;6.00;99.90
41694;DHT22;27377;50.666;9.150;2023-12-14T05:45:14;6.00;99.90
41694;DHT22;27377;50.666;9.150;2023-12-14T05:47:40;6.00;99.90
41694;DHT22;27377;50.666;9.150;2023-12-14T05:50:07;6.00;99.90
41694;DHT22;27377;50.666;9.150;2023-12-14T05:52:35;6.10;99.90
41694;DHT22;27377;50.666;9.150;2023-12-14T05:55:00;6.10;99.90
41694;DHT22;27377;50.666;9.150;2023-12-14T05:57:26;6.00;99.90
41694;DHT22;27377;50.666;9.150;2023-12-14T05:59:52;6.00;99.90
41694;DHT22;27377;50.666;9.150;2023-12-14T06:02:17;6.00;99.90
41694;DHT22;27377;50.666;9.150;2023-12-14T06:04:43;6.00;99.90
41694;DHT22;27377;50.666;9.150;2023-12-14T06:07:08;6.10;99.90
41694;DHT22;27377;50.666;9.150;2023-12-14T06:09:34;6.10;99.90
41694;DHT22;27377;50.666;9.150;2023-12-14T06:12:05;6.10;99.90
41694;DHT22;27377;50.666;9.150;2023-12-14T06:14:31;6.00;99.90
41694;DHT22;27377;50.666;9.150;2023-12-14T06:16:57;6.10;99.90
41694;DHT22;27377;50.666;9.150;2023-12-14T06:19:23;6.10;99.90
41694;DHT22;27377;50.666;9.150;2023-12-14T06:21:49;6.00;99.90
41694;DHT22;27377;50.666;9.150;2023-12-14T06:24:14;6.10;99.90
41694;DHT22;27377;50.666;9.150;2023-12-14T06:26:41;6.10;99.90
41694;DHT22;27377;50.666;9.150;2023-12-14T06:29:07;6.10;99.90
41694;DHT22;27377;50.666;9.150;2023-12-14T06:31:33;6.10;99.90
41694;DHT22;27377;50.666;9.150;2023-12-14T06:33:58;6.10;99.90
41694;DHT22;27377;50.666;9.150;2023-12-14T06:36:26;6.20;99.90
41694;DHT22;27377;50.666;9.150;2023-12-14T06:38:54;6.10;99.90
41694;DHT22;27377;50.666;9.150;2023-12-14T06:41:21;6.10;99.90
41694;DHT22;27377;50.666;9.150;2023-12-14T06:43:48;6.10;99.90
41694;DHT22;27377;50.666;9.150;2023-12-14T06:46:13;6.20;99.90
41694;DHT22;27377;50.666;9.150;2023-12-14T06:48:39;6.10;99.90
41694;DHT22;27377;50.666;9.150;2023-12-14T06:51:04;6.10;99.90
41694;DHT22;27377;50.666;9.150;2023-12-14T06:53:30;6.10;99.90
41694;DHT22;27377;50.666;9.150;2023-12-14T06:55:55;6.20;99.90
41694;DHT22;27377;50.666;9.150;2023-12-14T06:58:21;6.10;99.90
41694;DHT22;27377;50.666;9.150;2023-12-14T07:00:46;6.10;99.90
41694;DHT22;27377;50.666;9.150;2023-12-14T07:03:13;6.10;99.90
41694;DHT22;27377;50.666;9.150;2023-12-14T07:05:39;6.10;99.90
41694;DHT22;27377;50.666;9.150;2023-12-14T07:08:04;6.10;99.90
41694;DHT22;27377;50.666;9.150;2023-12-14T07:10:30;6.10;99.90
41694;DHT22;27377;50.666;9.150;2023-12-14T07:12:56;6.10;99.90
41694;DHT22;27377;50.666;9.150;2023-12-14T07:15:21;6.10;99.90
41694;DHT22;27377;50.666;9.150;2023-12-14T07:17:47;6.20;99.90
41694;DHT22;27377;50.666;9.150;2023-12-14T07:20:12;6.20;99.90
41694;DHT22;27377;50.666;9.150;2023-12-14T07:22:38;6.20;99.90
41694;DHT22;27377;50.666;9.150;2023-12-14T07:25:04;6.30;99.90
41694;DHT22;27377;50.666;9.150;2023-12-14T07:27:30;6.30;99.90
41694;DHT22;27377;50.666;9.150;2023-12-14T07:29:55;6.20;99.90
41694;DHT22;27377;50.666;9.150;2023-12-14T07:32:21;6.20;99.90
41694;DHT22;27377;50.666;9.150;2023-12-14T07:34:47;6.20;99.90
41694;DHT22;27377;50.666;9.150;2023-12-14T07:37:13;6.20;99.90
41694;DHT22;27377;50.666;9.150;2023-12-14T07:39:38;6.20;99.90
41694;DHT22;27377;50.666;9.150;2023-12-14T07:42:04;6.20;99.90
41694;DHT22;27377;50.666;9.150;2023-12-14T07:44:31;6.20;99.90
41694;DHT22;27377;50.666;9.150;2023-12-14T07:47:00;6.20;99.90
41694;DHT22;27377;50.666;9.150;2023-12-14T07:49:26;6.20;99.90
41694;DHT22;27377;50.666;9.150;2023-12-14T07:51:51;6.20;99.90
41694;DHT22;27377;50.666;9.150;2023-12-14T07:54:17;6.20;99.90
41694;DHT22;27377;50.666;9.150;2023-12-14T07:56:43;6.10;99.90
41694;DHT22;27377;50.666;9.150;2023-12-14T07:59:09;6.10;99.90
41694;DHT22;27377;50.666;9.150;2023-12-14T08:01:35;6.10;99.90
41694;DHT22;27377;50.666;9.150;2023-12-14T08:04:01;6.10;99.90
41694;DHT22;27377;50.666;9.150;2023-12-14T08:06:27;6.10;99.90
41694;DHT22;27377;50.666;9.150;2023-12-14T08:08:53;6.10;99.90
41694;DHT22;27377;50.666;9.150;2023-12-14T08:11:18;6.10;99.90
41694;DHT22;27377;50.666;9.150;2023-12-14T08:13:44;6.20;99.90
41694;DHT22;27377;50.666;9.150;2023-12-14T08:16:09;6.10;99.90
41694;DHT22;27377;50.666;9.150;2023-12-14T08:18:36;6.10;99.90
41694;DHT22;27377;50.666;9.150;2023-12-14T08:21:02;6.20;99.90
41694;DHT22;27377;50.666;9.150;2023-12-14T08:23:29;6.10;99.90
41694;DHT22;27377;50.666;9.150;2023-12-14T08:25:56;6.20;99.90
41694;DHT22;27377;50.666;9.150;2023-12-14T08:28:25;6.10;99.90
41694;DHT22;27377;50.666;9.150;2023-12-14T08:30:51;6.20;99.90
41694;DHT22;27377;50.666;9.150;2023-12-14T08:33:17;6.20;99.90
41694;DHT22;27377;50.666;9.150;2023-12-14T08:35:43;6.20;99.90
41694;DHT22;27377;50.666;9.150;2023-12-14T08:38:09;6.20;99.90
41694;DHT22;27377;50.666;9.150;2023-12-14T08:40:35;6.20;99.90
41694;DHT22;27377;50.666;9.150;2023-12-14T08:43:00;6.20;99.90
41694;DHT22;27377;50.666;9.150;2023-12-14T08:45:26;6.20;99.90
41694;DHT22;27377;50.666;9.150;2023-12-14T08:47:51;6.20;99.90
41694;DHT22;27377;50.666;9.150;2023-12-14T08:50:17;6.20;99.90
41694;DHT22;27377;50.666;9.150;2023-12-14T08:52:43;6.20;99.90
41694;DHT22;27377;50.666;9.150;2023-12-14T08:55:08;6.20;99.90
41694;DHT22;27377;50.666;9.150;2023-12-14T08:57:35;6.20;99.90
41694;DHT22;27377;50.666;9.150;2023-12-14T09:00:01;6.20;99.90
41694;DHT22;27377;50.666;9.150;2023-12-14T09:02:28;6.10;99.90
41694;DHT22;27377;50.666;9.150;2023-12-14T09:04:54;6.10;99.90
41694;DHT22;27377;50.666;9.150;2023-12-14T09:07:19;6.10;99.90
41694;DHT22;27377;50.666;9.150;2023-12-14T09:09:45;6.20;99.90
41694;DHT22;27377;50.666;9.150;2023-12-14T09:12:10;6.20;99.90
41694;DHT22;27377;50.666;9.150;2023-12-14T09:14:37;6.20;99.90
41694;DHT22;27377;50.666;9.150;2023-12-14T09:17:03;6.20;99.90
41694;DHT22;27377;50.666;9.150;2023-12-14T09:19:30;6.20;99.90
41694;DHT22;27377;50.666;9.150;2023-12-14T09:21:56;6.20;99.90
41694;DHT22;27377;50.666;9.150;2023-12-14T09:24:22;6.20;99.90
41694;DHT22;27377;50.666;9.150;2023-12-14T09:26:48;6.20;99.90
41694;DHT22;27377;50.666;9.150;2023-12-14T09:29:13;6.20;99.90
41694;DHT22;27377;50.666;9.150;2023-12-14T09:31:45;6.20;99.90
41694;DHT22;27377;50.666;9.150;2023-12-14T09:34:11;6.20;99.90
41694;DHT22;27377;50.666;9.150;2023-12-14T09:36:37;6.20;99.90
41694;DHT22;27377;50.666;9.150;2023-12-14T09:39:03;6.20;99.90
41694;DHT22;27377;50.666;9.150;2023-12-14T09:41:29;6.20;99.90
41694;DHT22;27377;50.666;9.150;2023-12-14T09:43:54;6.20;99.90
41694;DHT22;27377;50.666;9.150;2023-12-14T09:46:21;6.20;99.90
41694;DHT22;27377;50.666;9.150;2023-12-14T09:48:47;6.20;99.90
41694;DHT22;27377;50.666;9.150;2023-12-14T09:51:16;6.20;99.90
41694;DHT22;27377;50.666;9.150;2023-12-14T09:53:41;6.20;99.90
41694;DHT22;27377;50.666;9.150;2023-12-14T09:56:07;6.20;99.90
41694;DHT22;27377;50.666;9.150;2023-12-14T09:58:33;6.20;99.90
41694;DHT22;27377;50.666;9.150;2023-12-14T10:00:58;6.20;99.90
41694;DHT22;27377;50.666;9.150;2023-12-14T10:03:27;6.20;99.90
41694;DHT22;27377;50.666;9.150;2023-12-14T10:05:57;6.20;99.90
41694;DHT22;27377;50.666;9.150;2023-12-14T10:08:24;6.20;99.90
41694;DHT22;27377;50.666;9.150;2023-12-14T10:10:52;6.20;99.90
41694;DHT22;27377;50.666;9.150;2023-12-14T10:13:19;6.20;99.90
41694;DHT22;27377;50.666;9.150;2023-12-14T10:15:46;6.20;99.90
41694;DHT22;27377;50.666;9.150;2023-12-14T10:18:24;6.20;99.90
41694;DHT22;27377;50.666;9.150;2023-12-14T10:20:50;6.20;99.90
41694;DHT22;27377;50.666;9.150;2023-12-14T10:23:17;6.30;99.90
41694;DHT22;27377;50.666;9.150;2023-12-14T10:25:43;6.20;99.90
41694;DHT22;27377;50.666;9.150;2023-12-14T10:28:12;6.20;99.90
41694;DHT22;27377;50.666;9.150;2023-12-14T10:30:38;6.20;99.90
41694;DHT22;27377;50.666;9.150;2023-12-14T10:33:04;6.20;99.90
41694;DHT22;27377;50.666;9.150;2023-12-14T10:35:30;6.20;99.90
41694;DHT22;27377;50.666;9.150;2023-12-14T10:37:55;6.20;99.90
41694;DHT22;27377;50.666;9.150;2023-12-14T10:40:25;6.20;99.90
41694;DHT22;27377;50.666;9.150;2023-12-14T10:42:51;6.20;99.90
41694;DHT22;27377;50.666;9.150;2023-12-14T10:45:18;6.20;99.90
41694;DHT22;27377;50.666;9.150;2023-12-14T10:47:46;6.20;99.90
41694;DHT22;27377;50.666;9.150;2023-12-14T10:50:13;6.20;99.90
41694;DHT22;27377;50.666;9.150;2023-12-14T10:52:39;6.20;99.90
41694;DHT22;27377;50.666;9.150;2023-12-14T10:55:22;6.20;99.90
41694;DHT22;27377;50.666;9.150;2023-12-14T10:57:51;6.20;99.90
41694;DHT22;27377;50.666;9.150;2023-12-14T11:00:17;6.20;99.90
41694;DHT22;27377;50.666;9.150;2023-12-14T11:02:46;6.20;99.90
41694;DHT22;27377;50.666;9.150;2023-12-14T11:05:13;6.20;99.90
41694;DHT22;27377;50.666;9.150;2023-12-14T11:07:51;6.20;99.90
41694;DHT22;27377;50.666;9.150;2023-12-14T11:10:26;6.20;99.90
41694;DHT22;27377;50.666;9.150;2023-12-14T11:13:01;6.20;99.90
41694;DHT22;27377;50.666;9.150;2023-12-14T11:15:28;6.20;99.90
41694;DHT22;27377;50.666;9.150;2023-12-14T11:21:01;6.20;99.90
41694;DHT22;27377;50.666;9.150;2023-12-14T11:23:29;6.20;99.90
41694;DHT22;27377;50.666;9.150;2023-12-14T11:26:04;6.20;99.90
41694;DHT22;27377;50.666;9.150;2023-12-14T11:28:36;6.20;99.90
41694;DHT22;27377;50.666;9.150;2023-12-14T11:31:04;6.10;99.90
41694;DHT22;27377;50.666;9.150;2023-12-14T11:33:35;6.20;99.90
41694;DHT22;27377;50.666;9.150;2023-12-14T11:36:02;6.20;99.90
41694;DHT22;27377;50.666;9.150;2023-12-14T11:38:31;6.20;99.90
41694;DHT22;27377;50.666;9.150;2023-12-14T11:40:58;6.20;99.90
41694;DHT22;27377;50.666;9.150;2023-12-14T11:43:24;6.20;99.90
41694;DHT22;27377;50.666;9.150;2023-12-14T11:45:52;6.20;99.90
41694;DHT22;27377;50.666;9.150;2023-12-14T11:48:18;6.20;99.90
41694;DHT22;27377;50.666;9.150;2023-12-14T11:50:45;6.20;99.90
41694;DHT22;27377;50.666;9.150;2023-12-14T11:53:12;6.20;99.90
41694;DHT22;27377;50.666;9.150;2023-12-14T11:55:40;6.20;99.90
41694;DHT22;27377;50.666;9.150;2023-12-14T11:58:07;6.20;99.90
41694;DHT22;27377;50.666;9.150;2023-12-14T12:00:34;6.20;99.90
41694;DHT22;27377;50.666;9.150;2023-12-14T12:03:17;6.20;99.90
41694;DHT22;27377;50.666;9.150;2023-12-14T12:05:46;6.20;99.90
41694;DHT22;27377;50.666;9.150;2023-12-14T12:08:13;6.20;99.90
41694;DHT22;27377;50.666;9.150;2023-12-14T12:10:40;6.20;99.90
41694;DHT22;27377;50.666;9.150;2023-12-14T12:13:14;6.20;99.90
41694;DHT22;27377;50.666;9.150;2023-12-14T12:15:40;6.20;99.90
41694;DHT22;27377;50.666;9.150;2023-12-14T12:18:11;6.20;99.90
41694;DHT22;27377;50.666;9.150;2023-12-14T12:20:36;6.20;99.90
41694;DHT22;27377;50.666;9.150;2023-12-14T12:23:03;6.20;99.90
41694;DHT22;27377;50.666;9.150;2023-12-14T12:25:29;6.20;99.90
41694;DHT22;27377;50.666;9.150;2023-12-14T12:27:57;6.20;99.90
41694;DHT22;27377;50.666;9.150;2023-12-14T12:30:23;6.20;99.90
41694;DHT22;27377;50.666;9.150;2023-12-14T12:32:49;6.20;99.90
41694;DHT22;27377;50.666;9.150;2023-12-14T12:35:16;6.20;99.90
41694;DHT22;27377;50.666;9.150;2023-12-14T12:37:42;6.20;99.90
41694;DHT22;27377;50.666;9.150;2023-12-14T12:40:08;6.20;99.90
41694;DHT22;27377;50.666;9.150;2023-12-14T12:42:34;6.20;99.90
41694;DHT22;27377;50.666;9.150;2023-12-14T12:44:59;6.20;99.90
41694;DHT22;27377;50.666;9.150;2023-12-14T12:47:26;6.30;99.90
41694;DHT22;27377;50.666;9.150;2023-12-14T12:49:51;6.20;99.90
41694;DHT22;27377;50.666;9.150;2023-12-14T12:52:17;6.30;99.90
41694;DHT22;27377;50.666;9.150;2023-12-14T12:54:43;6.20;99.90
41694;DHT22;27377;50.666;9.150;2023-12-14T12:57:09;6.20;99.90
41694;DHT22;27377;50.666;9.150;2023-12-14T12:59:34;6.20;99.90
41694;DHT22;27377;50.666;9.150;2023-12-14T13:02:00;6.20;99.90
41694;DHT22;27377;50.666;9.150;2023-12-14T13:04:25;6.20;99.90
41694;DHT22;27377;50.666;9.150;2023-12-14T13:06:51;6.20;99.90
41694;DHT22;27377;50.666;9.150;2023-12-14T13:09:17;6.10;99.90
41694;DHT22;27377;50.666;9.150;2023-12-14T13:11:45;6.10;99.90
41694;DHT22;27377;50.666;9.150;2023-12-14T13:14:11;6.10;99.90
41694;DHT22;27377;50.666;9.150;2023-12-14T13:16:37;6.10;99.90
41694;DHT22;27377;50.666;9.150;2023-12-14T13:19:03;6.10;99.90
41694;DHT22;27377;50.666;9.150;2023-12-14T13:21:29;6.10;99.90
41694;DHT22;27377;50.666;9.150;2023-12-14T13:23:55;6.10;99.90
41694;DHT22;27377;50.666;9.150;2023-12-14T13:26:23;6.10;99.90
41694;DHT22;27377;50.666;9.150;2023-12-14T13:28:53;6.10;99.90
41694;DHT22;27377;50.666;9.150;2023-12-14T13:31:19;6.20;99.90
41694;DHT22;27377;50.666;9.150;2023-12-14T13:33:46;6.20;99.90
41694;DHT22;27377;50.666;9.150;2023-12-14T13:36:13;6.20;99.90
41694;DHT22;27377;50.666;9.150;2023-12-14T13:38:40;6.20;99.90
41694;DHT22;27377;50.666;9.150;2023-12-14T13:41:07;6.20;99.90
41694;DHT22;27377;50.666;9.150;2023-12-14T13:43:32;6.30;99.90
41694;DHT22;27377;50.666;9.150;2023-12-14T13:45:58;6.20;99.90
41694;DHT22;27377;50.666;9.150;2023-12-14T13:48:24;6.20;99.90
41694;DHT22;27377;50.666;9.150;2023-12-14T13:50:50;6.20;99.90
41694;DHT22;27377;50.666;9.150;2023-12-14T13:53:16;6.20;99.90
41694;DHT22;27377;50.666;9.150;2023-12-14T13:55:41;6.20;99.90
41694;DHT22;27377;50.666;9.150;2023-12-14T13:58:07;6.20;99.90
41694;DHT22;27377;50.666;9.150;2023-12-14T14:00:33;6.20;99.90
41694;DHT22;27377;50.666;9.150;2023-12-14T14:03:00;6.30;99.90
41694;DHT22;27377;50.666;9.150;2023-12-14T14:05:25;6.30;99.90
41694;DHT22;27377;50.666;9.150;2023-12-14T14:07:51;6.30;99.90
41694;DHT22;27377;50.666;9.150;2023-12-14T14:10:17;6.20;99.90
41694;DHT22;27377;50.666;9.150;2023-12-14T14:12:43;6.20;99.90
41694;DHT22;27377;50.666;9.150;2023-12-14T14:15:09;6.20;99.90
41694;DHT22;27377;50.666;9.150;2023-12-14T14:17:35;6.20;99.90
41694;DHT22;27377;50.666;9.150;2023-12-14T14:20:01;6.20;99.90
41694;DHT22;27377;50.666;9.150;2023-12-14T14:22:26;6.20;99.90
41694;DHT22;27377;50.666;9.150;2023-12-14T14:24:52;6.20;99.90
41694;DHT22;27377;50.666;9.150;2023-12-14T14:27:17;6.20;99.90
41694;DHT22;27377;50.666;9.150;2023-12-14T14:29:43;6.20;99.90
41694;DHT22;27377;50.666;9.150;2023-12-14T14:32:08;6.20;99.90
41694;DHT22;27377;50.666;9.150;2023-12-14T14:34:34;6.10;99.90
41694;DHT22;27377;50.666;9.150;2023-12-14T14:37:01;6.10;99.90
41694;DHT22;27377;50.666;9.150;2023-12-14T14:39:26;6.10;99.90
41694;DHT22;27377;50.666;9.150;2023-12-14T14:41:52;6.10;99.90
41694;DHT22;27377;50.666;9.150;2023-12-14T14:44:18;6.10;99.90
41694;DHT22;27377;50.666;9.150;2023-12-14T14:46:43;6.10;99.90
41694;DHT22;27377;50.666;9.150;2023-12-14T14:49:09;6.10;99.90
41694;DHT22;27377;50.666;9.150;2023-12-14T14:51:35;6.10;99.90
41694;DHT22;27377;50.666;9.150;2023-12-14T14:54:00;6.10;99.90
41694;DHT22;27377;50.666;9.150;2023-12-14T14:56:26;6.10;99.90
41694;DHT22;27377;50.666;9.150;2023-12-14T14:58:51;6.10;99.90
41694;DHT22;27377;50.666;9.150;2023-12-14T15:01:17;6.10;99.90
41694;DHT22;27377;50.666;9.150;2023-12-14T15:03:44;6.10;99.90
41694;DHT22;27377;50.666;9.150;2023-12-14T15:06:09;6.10;99.90
41694;DHT22;27377;50.666;9.150;2023-12-14T15:08:35;6.10;99.90
41694;DHT22;27377;50.666;9.150;2023-12-14T15:11:00;6.10;99.90
41694;DHT22;27377;50.666;9.150;2023-12-14T15:13:26;6.10;99.90
41694;DHT22;27377;50.666;9.150;2023-12-14T15:15:53;6.10;99.90
41694;DHT22;27377;50.666;9.150;2023-12-14T15:18:20;6.00;99.90
41694;DHT22;27377;50.666;9.150;2023-12-14T15:20:45;6.00;99.90
41694;DHT22;27377;50.666;9.150;2023-12-14T15:23:14;6.00;99.90
41694;DHT22;27377;50.666;9.150;2023-12-14T15:25:40;6.00;99.90
41694;DHT22;27377;50.666;9.150;2023-12-14T15:28:06;6.00;99.90
41694;DHT22;27377;50.666;9.150;2023-12-14T15:30:31;5.90;99.90
41694;DHT22;27377;50.666;9.150;2023-12-14T15:32:57;5.90;99.90
41694;DHT22;27377;50.666;9.150;2023-12-14T15:35:23;5.90;99.90
41694;DHT22;27377;50.666;9.150;2023-12-14T15:37:48;5.90;99.90
41694;DHT22;27377;50.666;9.150;2023-12-14T15:40:14;5.80;99.90
41694;DHT22;27377;50.666;9.150;2023-12-14T15:42:39;5.80;99.90
41694;DHT22;27377;50.666;9.150;2023-12-14T15:45:05;5.80;99.90
41694;DHT22;27377;50.666;9.150;2023-12-14T15:47:31;5.80;99.90
41694;DHT22;27377;50.666;9.150;2023-12-14T15:49:57;5.70;99.90
41694;DHT22;27377;50.666;9.150;2023-12-14T15:52:22;5.70;99.90
41694;DHT22;27377;50.666;9.150;2023-12-14T15:54:48;5.60;99.90
41694;DHT22;27377;50.666;9.150;2023-12-14T15:57:13;5.60;99.90
41694;DHT22;27377;50.666;9.150;2023-12-14T15:59:39;5.60;99.90
41694;DHT22;27377;50.666;9.150;2023-12-14T16:02:05;5.60;99.90
41694;DHT22;27377;50.666;9.150;2023-12-14T16:04:31;5.60;99.90
41694;DHT22;27377;50.666;9.150;2023-12-14T16:06:56;5.60;99.90
41694;DHT22;27377;50.666;9.150;2023-12-14T16:09:22;5.60;99.90
41694;DHT22;27377;50.666;9.150;2023-12-14T16:11:47;5.50;99.90
41694;DHT22;27377;50.666;9.150;2023-12-14T16:14:13;5.50;99.90
41694;DHT22;27377;50.666;9.150;2023-12-14T16:16:39;5.50;99.90
41694;DHT22;27377;50.666;9.150;2023-12-14T16:19:04;5.50;99.90
41694;DHT22;27377;50.666;9.150;2023-12-14T16:21:30;5.50;99.90
41694;DHT22;27377;50.666;9.150;2023-12-14T16:23:55;5.40;99.90
41694;DHT22;27377;50.666;9.150;2023-12-14T16:26:21;5.40;99.90
41694;DHT22;27377;50.666;9.150;2023-12-14T16:28:47;5.40;99.90
41694;DHT22;27377;50.666;9.150;2023-12-14T16:31:12;5.40;99.90
41694;DHT22;27377;50.666;9.150;2023-12-14T16:33:38;5.40;99.90
41694;DHT22;27377;50.666;9.150;2023-12-14T16:36:13;5.30;99.90
41694;DHT22;27377;50.666;9.150;2023-12-14T16:38:42;5.30;99.90
41694;DHT22;27377;50.666;9.150;2023-12-14T16:41:10;5.30;99.90
41694;DHT22;27377;50.666;9.150;2023-12-14T16:43:35;5.30;99.90
41694;DHT22;27377;50.666;9.150;2023-12-14T16:46:01;5.30;99.90
41694;DHT22;27377;50.666;9.150;2023-12-14T16:48:27;5.30;99.90
41694;DHT22;27377;50.666;9.150;2023-12-14T16:50:52;5.30;99.90
41694;DHT22;27377;50.666;9.150;2023-12-14T16:53:22;5.30;99.90
41694;DHT22;27377;50.666;9.150;2023-12-14T16:55:49;5.20;99.90
41694;DHT22;27377;50.666;9.150;2023-12-14T16:58:16;5.20;99.90
41694;DHT22;27377;50.666;9.150;2023-12-14T17:00:41;5.20;99.90
41694;DHT22;27377;50.666;9.150;2023-12-14T17:03:07;5.20;99.90
41694;DHT22;27377;50.666;9.150;2023-12-14T17:05:32;5.20;99.90
41694;DHT22;27377;50.666;9.150;2023-12-14T17:07:58;5.20;99.90
41694;DHT22;27377;50.666;9.150;2023-12-14T17:10:23;5.20;99.90
41694;DHT22;27377;50.666;9.150;2023-12-14T17:12:49;5.10;99.90
41694;DHT22;27377;50.666;9.150;2023-12-14T17:15:15;5.10;99.90
41694;DHT22;27377;50.666;9.150;2023-12-14T17:17:40;5.10;99.90
41694;DHT22;27377;50.666;9.150;2023-12-14T17:20:06;5.10;99.90
41694;DHT22;27377;50.666;9.150;2023-12-14T17:22:32;5.00;99.90
41694;DHT22;27377;50.666;9.150;2023-12-14T17:25:07;5.00;99.90
41694;DHT22;27377;50.666;9.150;2023-12-14T17:33:51;4.90;99.90
41694;DHT22;27377;50.666;9.150;2023-12-14T17:37:00;4.90;99.90
41694;DHT22;27377;50.666;9.150;2023-12-14T17:39:49;4.80;99.90
41694;DHT22;27377;50.666;9.150;2023-12-14T17:42:40;4.80;99.90
41694;DHT22;27377;50.666;9.150;2023-12-14T17:45:30;4.80;99.90
41694;DHT22;27377;50.666;9.150;2023-12-14T18:15:05;4.60;99.90
41694;DHT22;27377;50.666;9.150;2023-12-14T18:30:50;4.60;99.90
41694;DHT22;27377;50.666;9.150;2023-12-14T18:38:36;4.40;99.90
41694;DHT22;27377;50.666;9.150;2023-12-14T18:41:06;4.40;99.90
41694;DHT22;27377;50.666;9.150;2023-12-14T18:48:56;4.20;99.90
41694;DHT22;27377;50.666;9.150;2023-12-14T19:10:25;4.00;99.90
41694;DHT22;27377;50.666;9.150;2023-12-14T19:15:39;4.00;99.90
41694;DHT22;27377;50.666;9.150;2023-12-14T19:18:11;3.90;99.90
41694;DHT22;27377;50.666;9.150;2023-12-14T19:20:50;3.90;99.90
41694;DHT22;27377;50.666;9.150;2023-12-14T19:23:24;3.80;99.90
41694;DHT22;27377;50.666;9.150;2023-12-14T19:25:53;3.80;99.90
41694;DHT22;27377;50.666;9.150;2023-12-14T19:41:37;3.50;99.90
41694;DHT22;27377;50.666;9.150;2023-12-14T19:44:05;3.50;99.90
41694;DHT22;27377;50.666;9.150;2023-12-14T19:46:42;3.50;99.90
41694;DHT22;27377;50.666;9.150;2023-12-14T19:49:25;3.40;99.90
41694;DHT22;27377;50.666;9.150;2023-12-14T19:52:04;3.40;99.90
41694;DHT22;27377;50.666;9.150;2023-12-14T19:54:47;3.40;99.90
41694;DHT22;27377;50.666;9.150;2023-12-14T19:59:55;3.50;99.90
41694;DHT22;27377;50.666;9.150;2023-12-14T20:02:25;3.50;99.90
41694;DHT22;27377;50.666;9.150;2023-12-14T20:05:06;3.50;99.90
41694;DHT22;27377;50.666;9.150;2023-12-14T20:07:45;3.50;99.90
41694;DHT22;27377;50.666;9.150;2023-12-14T20:10:31;3.40;99.90
41694;DHT22;27377;50.666;9.150;2023-12-14T20:13:05;3.40;99.90
41694;DHT22;27377;50.666;9.150;2023-12-14T20:15:39;3.30;99.90
41694;DHT22;27377;50.666;9.150;2023-12-14T20:18:05;3.20;99.90
41694;DHT22;27377;50.666;9.150;2023-12-14T20:20:31;3.20;99.90
41694;DHT22;27377;50.666;9.150;2023-12-14T20:23:03;3.20;99.90
41694;DHT22;27377;50.666;9.150;2023-12-14T20:25:29;3.20;99.90
41694;DHT22;27377;50.666;9.150;2023-12-14T20:27:55;3.10;99.90
41694;DHT22;27377;50.666;9.150;2023-12-14T20:30:21;3.00;99.90
41694;DHT22;27377;50.666;9.150;2023-12-14T20:32:47;3.00;99.90
41694;DHT22;27377;50.666;9.150;2023-12-14T20:35:16;3.00;99.90
41694;DHT22;27377;50.666;9.150;2023-12-14T20:37:42;2.90;99.90
41694;DHT22;27377;50.666;9.150;2023-12-14T20:40:16;2.90;99.90
41694;DHT22;27377;50.666;9.150;2023-12-14T20:42:42;2.80;99.90
41694;DHT22;27377;50.666;9.150;2023-12-14T20:45:14;2.80;99.90
41694;DHT22;27377;50.666;9.150;2023-12-14T20:47:43;2.70;99.90
41694;DHT22;27377;50.666;9.150;2023-12-14T20:50:18;2.70;99.90
41694;DHT22;27377;50.666;9.150;2023-12-14T20:52:48;2.70;99.90
41694;DHT22;27377;50.666;9.150;2023-12-14T20:55:14;2.80;99.90
41694;DHT22;27377;50.666;9.150;2023-12-14T20:57:40;2.80;99.90
41694;DHT22;27377;50.666;9.150;2023-12-14T21:00:10;2.90;99.90
41694;DHT22;27377;50.666;9.150;2023-12-14T21:02:39;2.90;99.90
41694;DHT22;27377;50.666;9.150;2023-12-14T21:05:06;2.90;99.90
41694;DHT22;27377;50.666;9.150;2023-12-14T21:07:36;3.00;99.90
41694;DHT22;27377;50.666;9.150;2023-12-14T21:10:13;3.00;99.90
41694;DHT22;27377;50.666;9.150;2023-12-14T21:12:58;3.00;99.90
41694;DHT22;27377;50.666;9.150;2023-12-14T21:15:27;3.00;99.90
41694;DHT22;27377;50.666;9.150;2023-12-14T21:21:39;3.10;99.90
41694;DHT22;27377;50.666;9.150;2023-12-14T21:24:05;3.10;99.90
41694;DHT22;27377;50.666;9.150;2023-12-14T21:26:32;3.00;99.90
41694;DHT22;27377;50.666;9.150;2023-12-14T21:29:03;3.00;99.90
41694;DHT22;27377;50.666;9.150;2023-12-14T21:31:32;2.90;99.90
41694;DHT22;27377;50.666;9.150;2023-12-14T21:33:58;2.90;99.90
41694;DHT22;27377;50.666;9.150;2023-12-14T21:36:23;3.00;99.90
41694;DHT22;27377;50.666;9.150;2023-12-14T21:38:50;3.00;99.90
41694;DHT22;27377;50.666;9.150;2023-12-14T21:41:20;2.90;99.90
41694;DHT22;27377;50.666;9.150;2023-12-14T21:43:50;2.90;99.90
41694;DHT22;27377;50.666;9.150;2023-12-14T21:46:21;3.00;99.90
41694;DHT22;27377;50.666;9.150;2023-12-14T21:48:52;3.00;99.90
41694;DHT22;27377;50.666;9.150;2023-12-14T21:51:20;2.90;99.90
41694;DHT22;27377;50.666;9.150;2023-12-14T21:53:47;2.90;99.90
41694;DHT22;27377;50.666;9.150;2023-12-14T21:56:17;2.90;99.90
41694;DHT22;27377;50.666;9.150;2023-12-14T21:58:44;2.90;99.90
41694;DHT22;27377;50.666;9.150;2023-12-14T22:01:22;3.00;99.90
41694;DHT22;27377;50.666;9.150;2023-12-14T22:03:51;3.00;99.90
41694;DHT22;27377;50.666;9.150;2023-12-14T22:06:20;3.00;99.90
41694;DHT22;27377;50.666;9.150;2023-12-14T22:08:48;3.00;99.90
41694;DHT22;27377;50.666;9.150;2023-12-14T22:11:39;3.00;99.90
41694;DHT22;27377;50.666;9.150;2023-12-14T22:14:24;2.90;99.90
41694;DHT22;27377;50.666;9.150;2023-12-14T22:16:51;2.90;99.90
41694;DHT22;27377;50.666;9.150;2023-12-14T22:19:23;2.90;99.90
41694;DHT22;27377;50.666;9.150;2023-12-14T22:21:51;3.00;99.90
41694;DHT22;27377;50.666;9.150;2023-12-14T22:24:17;3.00;99.90
41694;DHT22;27377;50.666;9.150;2023-12-14T22:26:43;2.90;99.90
41694;DHT22;27377;50.666;9.150;2023-12-14T22:29:13;3.00;99.90
41694;DHT22;27377;50.666;9.150;2023-12-14T22:31:39;3.00;99.90
41694;DHT22;27377;50.666;9.150;2023-12-14T22:34:05;3.10;99.90
41694;DHT22;27377;50.666;9.150;2023-12-14T22:36:32;3.00;99.90